sensor_id;sensor_type;location;lat;lon;timestamp;temperature;humidity
18434;DHT22;9344;52.294;13.626;2022-08-21T00:02:14;20.50;99.90
18434;DHT22;9344;52.294;13.626;2022-08-21T00:04:42;20.50;99.90
18434;DHT22;9344;52.294;13.626;2022-08-21T00:07:08;20.50;99.90
18434;DHT22;9344;52.294;13.626;2022-08-21T00:09:36;20.60;99.90
18434;DHT22;9344;52.294;13.626;2022-08-21T00:12:03;20.60;99.90
18434;DHT22;9344;52.294;13.626;2022-08-21T00:14:31;20.60;99.90
18434;DHT22;9344;52.294;13.626;2022-08-21T00:16:57;20.60;99.90
18434;DHT22;9344;52.294;13.626;2022-08-21T00:19:24;20.60;99.90
18434;DHT22;9344;52.294;13.626;2022-08-21T00:21:54;20.60;99.90
18434;DHT22;9344;52.294;13.626;2022-08-21T00:24:22;20.60;99.90
18434;DHT22;9344;52.294;13.626;2022-08-21T00:26:49;20.60;99.90
18434;DHT22;9344;52.294;13.626;2022-08-21T00:29:16;20.60;99.90
18434;DHT22;9344;52.294;13.626;2022-08-21T00:31:43;20.60;99.90
18434;DHT22;9344;52.294;13.626;2022-08-21T00:34:10;20.70;99.90
18434;DHT22;9344;52.294;13.626;2022-08-21T00:36:37;20.60;99.90
18434;DHT22;9344;52.294;13.626;2022-08-21T00:39:07;20.60;99.90
18434;DHT22;9344;52.294;13.626;2022-08-21T00:41:34;20.70;99.90
18434;DHT22;9344;52.294;13.626;2022-08-21T00:44:02;20.60;99.90
18434;DHT22;9344;52.294;13.626;2022-08-21T00:46:29;20.60;99.90
18434;DHT22;9344;52.294;13.626;2022-08-21T00:48:56;20.60;99.90
18434;DHT22;9344;52.294;13.626;2022-08-21T00:51:25;20.60;99.90
18434;DHT22;9344;52.294;13.626;2022-08-21T00:53:56;20.50;99.90
18434;DHT22;9344;52.294;13.626;2022-08-21T00:56:27;20.60;99.90
18434;DHT22;9344;52.294;13.626;2022-08-21T00:58:56;20.50;99.90
18434;DHT22;9344;52.294;13.626;2022-08-21T01:01:23;20.50;99.90
18434;DHT22;9344;52.294;13.626;2022-08-21T01:03:50;20.50;99.90
18434;DHT22;9344;52.294;13.626;2022-08-21T01:06:17;20.50;99.90
18434;DHT22;9344;52.294;13.626;2022-08-21T01:08:44;20.60;99.90
18434;DHT22;9344;52.294;13.626;2022-08-21T01:11:11;20.50;99.90
18434;DHT22;9344;52.294;13.626;2022-08-21T01:13:39;20.50;99.90
18434;DHT22;9344;52.294;13.626;2022-08-21T01:16:12;20.60;99.90
18434;DHT22;9344;52.294;13.626;2022-08-21T01:18:39;20.60;99.90
18434;DHT22;9344;52.294;13.626;2022-08-21T01:21:09;20.60;99.90
18434;DHT22;9344;52.294;13.626;2022-08-21T01:23:38;20.50;99.90
18434;DHT22;9344;52.294;13.626;2022-08-21T01:26:06;20.60;99.90
18434;DHT22;9344;52.294;13.626;2022-08-21T01:28:37;20.50;99.90
18434;DHT22;9344;52.294;13.626;2022-08-21T01:31:05;20.50;99.90
18434;DHT22;9344;52.294;13.626;2022-08-21T01:33:33;20.50;99.90
18434;DHT22;9344;52.294;13.626;2022-08-21T01:36:00;20.50;99.90
18434;DHT22;9344;52.294;13.626;2022-08-21T01:38:28;20.50;99.90
18434;DHT22;9344;52.294;13.626;2022-08-21T01:40:54;20.50;99.90
18434;DHT22;9344;52.294;13.626;2022-08-21T01:43:21;20.50;99.90
18434;DHT22;9344;52.294;13.626;2022-08-21T01:45:47;20.50;99.90
18434;DHT22;9344;52.294;13.626;2022-08-21T01:48:14;20.60;99.90
18434;DHT22;9344;52.294;13.626;2022-08-21T01:50:40;20.50;99.90
18434;DHT22;9344;52.294;13.626;2022-08-21T01:53:07;20.60;99.90
18434;DHT22;9344;52.294;13.626;2022-08-21T01:55:35;20.60;99.90
18434;DHT22;9344;52.294;13.626;2022-08-21T01:58:02;20.60;99.90
18434;DHT22;9344;52.294;13.626;2022-08-21T02:00:28;20.60;99.90
18434;DHT22;9344;52.294;13.626;2022-08-21T02:02:55;20.60;99.90
18434;DHT22;9344;52.294;13.626;2022-08-21T02:05:22;20.60;99.90
18434;DHT22;9344;52.294;13.626;2022-08-21T02:07:50;20.60;99.90
18434;DHT22;9344;52.294;13.626;2022-08-21T02:10:19;20.60;99.90
18434;DHT22;9344;52.294;13.626;2022-08-21T02:12:47;20.60;99.90
18434;DHT22;9344;52.294;13.626;2022-08-21T02:15:15;20.70;99.90
18434;DHT22;9344;52.294;13.626;2022-08-21T02:17:44;20.70;99.90
18434;DHT22;9344;52.294;13.626;2022-08-21T02:20:22;20.60;99.90
18434;DHT22;9344;52.294;13.626;2022-08-21T02:22:49;20.50;99.90
18434;DHT22;9344;52.294;13.626;2022-08-21T02:25:16;20.50;99.90
18434;DHT22;9344;52.294;13.626;2022-08-21T02:27:45;20.50;99.90
18434;DHT22;9344;52.294;13.626;2022-08-21T02:30:16;20.50;99.90
18434;DHT22;9344;52.294;13.626;2022-08-21T02:32:42;20.40;99.90
18434;DHT22;9344;52.294;13.626;2022-08-21T02:35:10;20.40;99.90
18434;DHT22;9344;52.294;13.626;2022-08-21T02:37:43;20.40;99.90
18434;DHT22;9344;52.294;13.626;2022-08-21T02:40:11;20.40;99.90
18434;DHT22;9344;52.294;13.626;2022-08-21T02:42:38;20.40;99.90
18434;DHT22;9344;52.294;13.626;2022-08-21T02:45:06;20.40;99.90
18434;DHT22;9344;52.294;13.626;2022-08-21T02:47:34;20.40;99.90
18434;DHT22;9344;52.294;13.626;2022-08-21T02:50:00;20.40;99.90
18434;DHT22;9344;52.294;13.626;2022-08-21T02:52:27;20.40;99.90
18434;DHT22;9344;52.294;13.626;2022-08-21T02:54:53;20.40;99.90
18434;DHT22;9344;52.294;13.626;2022-08-21T02:57:20;20.30;99.90
18434;DHT22;9344;52.294;13.626;2022-08-21T02:59:46;20.20;99.90
18434;DHT22;9344;52.294;13.626;2022-08-21T03:02:13;20.30;99.90
18434;DHT22;9344;52.294;13.626;2022-08-21T03:04:41;20.30;99.90
18434;DHT22;9344;52.294;13.626;2022-08-21T03:07:07;20.30;99.90
18434;DHT22;9344;52.294;13.626;2022-08-21T03:09:34;20.30;99.90
18434;DHT22;9344;52.294;13.626;2022-08-21T03:12:00;20.30;99.90
18434;DHT22;9344;52.294;13.626;2022-08-21T03:14:27;20.30;99.90
18434;DHT22;9344;52.294;13.626;2022-08-21T03:16:53;20.30;99.90
18434;DHT22;9344;52.294;13.626;2022-08-21T03:19:20;20.30;99.90
18434;DHT22;9344;52.294;13.626;2022-08-21T03:21:48;20.30;99.90
18434;DHT22;9344;52.294;13.626;2022-08-21T03:24:14;20.30;99.90
18434;DHT22;9344;52.294;13.626;2022-08-21T03:26:41;20.30;99.90
18434;DHT22;9344;52.294;13.626;2022-08-21T03:29:07;20.30;99.90
18434;DHT22;9344;52.294;13.626;2022-08-21T03:31:34;20.30;99.90
18434;DHT22;9344;52.294;13.626;2022-08-21T03:34:00;20.30;99.90
18434;DHT22;9344;52.294;13.626;2022-08-21T03:36:27;20.30;99.90
18434;DHT22;9344;52.294;13.626;2022-08-21T03:38:55;20.20;99.90
18434;DHT22;9344;52.294;13.626;2022-08-21T03:41:21;20.10;99.90
18434;DHT22;9344;52.294;13.626;2022-08-21T03:43:48;20.10;99.90
18434;DHT22;9344;52.294;13.626;2022-08-21T03:46:14;20.10;99.90
18434;DHT22;9344;52.294;13.626;2022-08-21T03:48:41;20.20;99.90
18434;DHT22;9344;52.294;13.626;2022-08-21T03:51:07;20.20;99.90
18434;DHT22;9344;52.294;13.626;2022-08-21T03:53:34;20.30;99.90
18434;DHT22;9344;52.294;13.626;2022-08-21T03:56:04;20.20;99.90
18434;DHT22;9344;52.294;13.626;2022-08-21T03:58:31;20.20;99.90
18434;DHT22;9344;52.294;13.626;2022-08-21T04:00:59;20.20;99.90
18434;DHT22;9344;52.294;13.626;2022-08-21T04:03:28;20.20;99.90
18434;DHT22;9344;52.294;13.626;2022-08-21T04:05:54;20.10;99.90
18434;DHT22;9344;52.294;13.626;2022-08-21T04:08:21;20.10;99.90
18434;DHT22;9344;52.294;13.626;2022-08-21T04:10:50;20.00;99.90
18434;DHT22;9344;52.294;13.626;2022-08-21T04:13:19;19.90;99.90
18434;DHT22;9344;52.294;13.626;2022-08-21T04:15:45;19.90;99.90
18434;DHT22;9344;52.294;13.626;2022-08-21T04:18:13;19.80;99.90
18434;DHT22;9344;52.294;13.626;2022-08-21T04:20:41;19.80;99.90
18434;DHT22;9344;52.294;13.626;2022-08-21T04:23:08;19.70;99.90
18434;DHT22;9344;52.294;13.626;2022-08-21T04:25:35;19.70;99.90
18434;DHT22;9344;52.294;13.626;2022-08-21T04:28:02;19.60;99.90
18434;DHT22;9344;52.294;13.626;2022-08-21T04:30:30;19.60;99.90
18434;DHT22;9344;52.294;13.626;2022-08-21T04:32:57;19.60;99.90
18434;DHT22;9344;52.294;13.626;2022-08-21T04:35:26;19.50;99.90
18434;DHT22;9344;52.294;13.626;2022-08-21T04:37:53;19.50;99.90
18434;DHT22;9344;52.294;13.626;2022-08-21T04:40:21;19.60;99.90
18434;DHT22;9344;52.294;13.626;2022-08-21T04:42:49;19.60;99.90
18434;DHT22;9344;52.294;13.626;2022-08-21T04:45:18;19.60;99.90
18434;DHT22;9344;52.294;13.626;2022-08-21T04:47:48;19.60;99.90
18434;DHT22;9344;52.294;13.626;2022-08-21T04:50:15;19.60;99.90
18434;DHT22;9344;52.294;13.626;2022-08-21T04:52:43;19.60;99.90
18434;DHT22;9344;52.294;13.626;2022-08-21T04:55:10;19.60;99.90
18434;DHT22;9344;52.294;13.626;2022-08-21T04:57:37;19.50;99.90
18434;DHT22;9344;52.294;13.626;2022-08-21T05:00:05;19.50;99.90
18434;DHT22;9344;52.294;13.626;2022-08-21T05:02:33;19.40;99.90
18434;DHT22;9344;52.294;13.626;2022-08-21T05:05:00;19.40;99.90
18434;DHT22;9344;52.294;13.626;2022-08-21T05:07:29;19.40;99.90
18434;DHT22;9344;52.294;13.626;2022-08-21T05:09:57;19.30;99.90
18434;DHT22;9344;52.294;13.626;2022-08-21T05:12:25;19.30;99.90
18434;DHT22;9344;52.294;13.626;2022-08-21T05:14:51;19.30;99.90
18434;DHT22;9344;52.294;13.626;2022-08-21T05:17:18;19.20;99.90
18434;DHT22;9344;52.294;13.626;2022-08-21T05:19:45;19.20;99.90
18434;DHT22;9344;52.294;13.626;2022-08-21T05:22:19;19.20;99.90
18434;DHT22;9344;52.294;13.626;2022-08-21T05:24:45;19.10;99.90
18434;DHT22;9344;52.294;13.626;2022-08-21T05:27:12;19.00;99.90
18434;DHT22;9344;52.294;13.626;2022-08-21T05:29:38;19.00;99.90
18434;DHT22;9344;52.294;13.626;2022-08-21T05:32:08;19.00;99.90
18434;DHT22;9344;52.294;13.626;2022-08-21T05:34:35;19.00;99.90
18434;DHT22;9344;52.294;13.626;2022-08-21T05:37:01;19.00;99.90
18434;DHT22;9344;52.294;13.626;2022-08-21T05:39:29;18.90;99.90
18434;DHT22;9344;52.294;13.626;2022-08-21T05:41:56;18.90;99.90
18434;DHT22;9344;52.294;13.626;2022-08-21T05:44:23;18.90;99.90
18434;DHT22;9344;52.294;13.626;2022-08-21T05:46:49;18.90;99.90
18434;DHT22;9344;52.294;13.626;2022-08-21T05:49:16;18.90;99.90
18434;DHT22;9344;52.294;13.626;2022-08-21T05:51:42;18.80;99.90
18434;DHT22;9344;52.294;13.626;2022-08-21T05:54:09;18.80;99.90
18434;DHT22;9344;52.294;13.626;2022-08-21T05:56:37;18.80;99.90
18434;DHT22;9344;52.294;13.626;2022-08-21T05:59:04;18.80;99.90
18434;DHT22;9344;52.294;13.626;2022-08-21T06:01:30;18.70;99.90
18434;DHT22;9344;52.294;13.626;2022-08-21T06:03:57;18.70;99.90
18434;DHT22;9344;52.294;13.626;2022-08-21T06:06:23;18.70;99.90
18434;DHT22;9344;52.294;13.626;2022-08-21T06:08:50;18.70;99.90
18434;DHT22;9344;52.294;13.626;2022-08-21T06:11:17;18.70;99.90
18434;DHT22;9344;52.294;13.626;2022-08-21T06:13:45;18.70;99.90
18434;DHT22;9344;52.294;13.626;2022-08-21T06:16:14;18.70;99.90
18434;DHT22;9344;52.294;13.626;2022-08-21T06:18:41;18.70;99.90
18434;DHT22;9344;52.294;13.626;2022-08-21T06:21:09;18.70;99.90
18434;DHT22;9344;52.294;13.626;2022-08-21T06:23:36;18.70;99.90
18434;DHT22;9344;52.294;13.626;2022-08-21T06:26:04;18.70;99.90
18434;DHT22;9344;52.294;13.626;2022-08-21T06:28:32;18.70;99.90
18434;DHT22;9344;52.294;13.626;2022-08-21T06:31:00;18.70;99.90
18434;DHT22;9344;52.294;13.626;2022-08-21T06:33:27;18.80;99.90
18434;DHT22;9344;52.294;13.626;2022-08-21T06:35:53;18.70;99.90
18434;DHT22;9344;52.294;13.626;2022-08-21T06:38:20;18.80;99.90
18434;DHT22;9344;52.294;13.626;2022-08-21T06:40:46;18.80;99.90
18434;DHT22;9344;52.294;13.626;2022-08-21T06:43:15;18.80;99.90
18434;DHT22;9344;52.294;13.626;2022-08-21T06:45:43;18.90;99.90
18434;DHT22;9344;52.294;13.626;2022-08-21T06:48:11;18.90;99.90
18434;DHT22;9344;52.294;13.626;2022-08-21T06:50:38;19.00;99.90
18434;DHT22;9344;52.294;13.626;2022-08-21T06:53:11;19.00;99.90
18434;DHT22;9344;52.294;13.626;2022-08-21T06:55:38;19.00;99.90
18434;DHT22;9344;52.294;13.626;2022-08-21T06:58:05;19.10;99.90
18434;DHT22;9344;52.294;13.626;2022-08-21T07:00:33;19.10;99.90
18434;DHT22;9344;52.294;13.626;2022-08-21T07:03:00;19.10;99.90
18434;DHT22;9344;52.294;13.626;2022-08-21T07:05:29;19.00;99.90
18434;DHT22;9344;52.294;13.626;2022-08-21T07:07:56;19.00;99.90
18434;DHT22;9344;52.294;13.626;2022-08-21T07:10:23;19.10;99.90
18434;DHT22;9344;52.294;13.626;2022-08-21T07:12:50;19.10;99.90
18434;DHT22;9344;52.294;13.626;2022-08-21T07:15:18;19.10;99.90
18434;DHT22;9344;52.294;13.626;2022-08-21T07:17:44;19.10;99.90
18434;DHT22;9344;52.294;13.626;2022-08-21T07:20:11;19.20;99.90
18434;DHT22;9344;52.294;13.626;2022-08-21T07:22:40;19.30;99.90
18434;DHT22;9344;52.294;13.626;2022-08-21T07:25:08;19.40;99.90
18434;DHT22;9344;52.294;13.626;2022-08-21T07:27:34;19.40;99.90
18434;DHT22;9344;52.294;13.626;2022-08-21T07:30:01;19.40;99.90
18434;DHT22;9344;52.294;13.626;2022-08-21T07:32:28;19.40;99.90
18434;DHT22;9344;52.294;13.626;2022-08-21T07:34:54;19.50;99.90
18434;DHT22;9344;52.294;13.626;2022-08-21T07:37:21;19.60;99.90
18434;DHT22;9344;52.294;13.626;2022-08-21T07:39:49;19.60;99.90
18434;DHT22;9344;52.294;13.626;2022-08-21T07:42:16;19.50;99.90
18434;DHT22;9344;52.294;13.626;2022-08-21T07:44:43;19.60;99.90
18434;DHT22;9344;52.294;13.626;2022-08-21T07:47:10;19.60;99.90
18434;DHT22;9344;52.294;13.626;2022-08-21T07:49:36;19.70;99.90
18434;DHT22;9344;52.294;13.626;2022-08-21T07:52:03;19.70;99.90
18434;DHT22;9344;52.294;13.626;2022-08-21T07:54:30;19.80;99.90
18434;DHT22;9344;52.294;13.626;2022-08-21T07:56:58;19.90;99.90
18434;DHT22;9344;52.294;13.626;2022-08-21T07:59:24;20.00;99.90
18434;DHT22;9344;52.294;13.626;2022-08-21T08:01:51;20.10;38.90
18434;DHT22;9344;52.294;13.626;2022-08-21T08:04:17;20.20;34.60
18434;DHT22;9344;52.294;13.626;2022-08-21T08:06:44;20.40;47.60
18434;DHT22;9344;52.294;13.626;2022-08-21T08:09:11;20.50;1.00
18434;DHT22;9344;52.294;13.626;2022-08-21T08:11:39;20.60;1.00
18434;DHT22;9344;52.294;13.626;2022-08-21T08:14:10;20.80;1.00
18434;DHT22;9344;52.294;13.626;2022-08-21T08:16:37;21.70;1.00
18434;DHT22;9344;52.294;13.626;2022-08-21T08:19:03;21.00;1.00
18434;DHT22;9344;52.294;13.626;2022-08-21T08:21:30;21.10;1.00
18434;DHT22;9344;52.294;13.626;2022-08-21T08:23:57;21.00;99.90
18434;DHT22;9344;52.294;13.626;2022-08-21T08:26:24;21.10;99.90
18434;DHT22;9344;52.294;13.626;2022-08-21T08:28:50;21.10;99.90
18434;DHT22;9344;52.294;13.626;2022-08-21T08:31:18;21.20;99.90
18434;DHT22;9344;52.294;13.626;2022-08-21T08:33:45;21.20;31.00
18434;DHT22;9344;52.294;13.626;2022-08-21T08:36:14;21.30;90.10
18434;DHT22;9344;52.294;13.626;2022-08-21T08:38:40;21.30;1.00
18434;DHT22;9344;52.294;13.626;2022-08-21T08:41:11;21.30;99.90
18434;DHT22;9344;52.294;13.626;2022-08-21T08:43:39;21.30;1.00
18434;DHT22;9344;52.294;13.626;2022-08-21T08:46:12;21.40;99.90
18434;DHT22;9344;52.294;13.626;2022-08-21T08:48:46;21.40;1.00
18434;DHT22;9344;52.294;13.626;2022-08-21T08:51:17;21.40;99.90
18434;DHT22;9344;52.294;13.626;2022-08-21T08:53:49;21.40;99.90
18434;DHT22;9344;52.294;13.626;2022-08-21T08:56:28;21.40;1.00
18434;DHT22;9344;52.294;13.626;2022-08-21T08:58:59;21.50;1.00
18434;DHT22;9344;52.294;13.626;2022-08-21T09:01:27;21.60;99.90
18434;DHT22;9344;52.294;13.626;2022-08-21T09:03:56;21.70;99.90
18434;DHT22;9344;52.294;13.626;2022-08-21T09:06:32;21.70;99.90
18434;DHT22;9344;52.294;13.626;2022-08-21T09:09:10;21.80;1.00
18434;DHT22;9344;52.294;13.626;2022-08-21T09:11:46;21.90;99.90
18434;DHT22;9344;52.294;13.626;2022-08-21T09:14:24;21.90;99.90
18434;DHT22;9344;52.294;13.626;2022-08-21T09:16:58;22.00;1.00
18434;DHT22;9344;52.294;13.626;2022-08-21T09:19:44;22.00;99.90
18434;DHT22;9344;52.294;13.626;2022-08-21T09:22:19;22.00;99.90
18434;DHT22;9344;52.294;13.626;2022-08-21T09:24:56;22.00;1.00
18434;DHT22;9344;52.294;13.626;2022-08-21T09:27:28;22.00;1.00
18434;DHT22;9344;52.294;13.626;2022-08-21T09:29:57;22.10;99.90
18434;DHT22;9344;52.294;13.626;2022-08-21T09:32:25;22.10;99.90
18434;DHT22;9344;52.294;13.626;2022-08-21T09:34:59;22.30;1.00
18434;DHT22;9344;52.294;13.626;2022-08-21T09:37:27;22.30;1.00
18434;DHT22;9344;52.294;13.626;2022-08-21T09:39:55;22.40;1.00
18434;DHT22;9344;52.294;13.626;2022-08-21T09:42:25;22.40;1.00
18434;DHT22;9344;52.294;13.626;2022-08-21T09:45:07;22.50;1.00
18434;DHT22;9344;52.294;13.626;2022-08-21T09:47:34;22.50;99.90
18434;DHT22;9344;52.294;13.626;2022-08-21T09:50:10;22.60;99.90
18434;DHT22;9344;52.294;13.626;2022-08-21T09:52:43;22.70;1.00
18434;DHT22;9344;52.294;13.626;2022-08-21T09:55:16;22.80;88.90
18434;DHT22;9344;52.294;13.626;2022-08-21T09:58:13;22.80;99.90
18434;DHT22;9344;52.294;13.626;2022-08-21T10:00:39;22.70;99.90
18434;DHT22;9344;52.294;13.626;2022-08-21T10:03:17;22.70;65.30
18434;DHT22;9344;52.294;13.626;2022-08-21T10:05:56;22.80;99.90
18434;DHT22;9344;52.294;13.626;2022-08-21T10:08:25;22.90;6.50
18434;DHT22;9344;52.294;13.626;2022-08-21T10:10:55;22.90;95.80
18434;DHT22;9344;52.294;13.626;2022-08-21T10:13:29;22.90;1.00
18434;DHT22;9344;52.294;13.626;2022-08-21T10:16:21;22.90;1.00
18434;DHT22;9344;52.294;13.626;2022-08-21T10:19:00;22.80;1.00
18434;DHT22;9344;52.294;13.626;2022-08-21T10:21:33;22.90;99.90
18434;DHT22;9344;52.294;13.626;2022-08-21T10:24:11;22.90;99.90
18434;DHT22;9344;52.294;13.626;2022-08-21T10:26:49;22.90;1.00
18434;DHT22;9344;52.294;13.626;2022-08-21T10:29:27;22.90;1.00
18434;DHT22;9344;52.294;13.626;2022-08-21T10:32:01;23.00;1.00
18434;DHT22;9344;52.294;13.626;2022-08-21T10:34:37;23.00;23.40
18434;DHT22;9344;52.294;13.626;2022-08-21T10:37:24;23.00;1.00
18434;DHT22;9344;52.294;13.626;2022-08-21T10:40:02;23.00;1.00
18434;DHT22;9344;52.294;13.626;2022-08-21T10:42:38;23.10;1.00
18434;DHT22;9344;52.294;13.626;2022-08-21T10:45:14;23.30;1.00
18434;DHT22;9344;52.294;13.626;2022-08-21T10:47:46;23.30;99.90
18434;DHT22;9344;52.294;13.626;2022-08-21T10:50:22;23.40;99.90
18434;DHT22;9344;52.294;13.626;2022-08-21T10:53:19;23.50;28.10
18434;DHT22;9344;52.294;13.626;2022-08-21T10:55:52;23.60;1.00
18434;DHT22;9344;52.294;13.626;2022-08-21T10:58:27;23.50;67.80
18434;DHT22;9344;52.294;13.626;2022-08-21T11:00:57;23.60;1.00
18434;DHT22;9344;52.294;13.626;2022-08-21T11:03:29;23.60;1.00
18434;DHT22;9344;52.294;13.626;2022-08-21T11:06:00;23.60;79.10
18434;DHT22;9344;52.294;13.626;2022-08-21T11:08:33;23.70;99.90
18434;DHT22;9344;52.294;13.626;2022-08-21T11:11:06;23.70;99.90
18434;DHT22;9344;52.294;13.626;2022-08-21T11:13:38;23.80;99.90
18434;DHT22;9344;52.294;13.626;2022-08-21T11:16:12;23.90;99.90
18434;DHT22;9344;52.294;13.626;2022-08-21T11:18:45;23.90;99.90
18434;DHT22;9344;52.294;13.626;2022-08-21T11:21:24;24.00;99.90
18434;DHT22;9344;52.294;13.626;2022-08-21T11:23:59;24.00;99.90
18434;DHT22;9344;52.294;13.626;2022-08-21T11:26:32;24.00;99.90
18434;DHT22;9344;52.294;13.626;2022-08-21T11:29:05;24.00;99.90
18434;DHT22;9344;52.294;13.626;2022-08-21T11:31:43;24.10;99.90
18434;DHT22;9344;52.294;13.626;2022-08-21T11:34:23;24.00;35.00
18434;DHT22;9344;52.294;13.626;2022-08-21T11:36:58;24.00;99.90
18434;DHT22;9344;52.294;13.626;2022-08-21T11:39:34;24.00;1.00
18434;DHT22;9344;52.294;13.626;2022-08-21T11:42:14;24.10;1.00
18434;DHT22;9344;52.294;13.626;2022-08-21T11:44:49;24.10;1.00
18434;DHT22;9344;52.294;13.626;2022-08-21T11:47:23;24.20;99.90
18434;DHT22;9344;52.294;13.626;2022-08-21T11:50:02;24.20;99.90
18434;DHT22;9344;52.294;13.626;2022-08-21T11:52:35;24.20;99.90
18434;DHT22;9344;52.294;13.626;2022-08-21T11:55:09;24.30;99.90
18434;DHT22;9344;52.294;13.626;2022-08-21T11:57:44;24.40;28.70
18434;DHT22;9344;52.294;13.626;2022-08-21T12:00:17;24.50;1.00
18434;DHT22;9344;52.294;13.626;2022-08-21T12:02:49;24.50;99.90
18434;DHT22;9344;52.294;13.626;2022-08-21T12:05:25;24.40;99.90
18434;DHT22;9344;52.294;13.626;2022-08-21T12:08:01;24.50;1.00
18434;DHT22;9344;52.294;13.626;2022-08-21T12:10:35;24.40;51.30
18434;DHT22;9344;52.294;13.626;2022-08-21T12:13:07;24.40;1.00
18434;DHT22;9344;52.294;13.626;2022-08-21T12:15:34;24.50;1.00
18434;DHT22;9344;52.294;13.626;2022-08-21T12:18:03;24.50;1.00
18434;DHT22;9344;52.294;13.626;2022-08-21T12:20:40;24.60;1.00
18434;DHT22;9344;52.294;13.626;2022-08-21T12:23:28;24.80;99.90
18434;DHT22;9344;52.294;13.626;2022-08-21T12:26:21;25.00;99.90
18434;DHT22;9344;52.294;13.626;2022-08-21T12:28:48;25.10;47.80
18434;DHT22;9344;52.294;13.626;2022-08-21T12:31:20;25.20;99.90
18434;DHT22;9344;52.294;13.626;2022-08-21T12:33:52;25.40;1.00
18434;DHT22;9344;52.294;13.626;2022-08-21T12:36:23;25.40;1.00
18434;DHT22;9344;52.294;13.626;2022-08-21T12:38:54;25.50;1.00
18434;DHT22;9344;52.294;13.626;2022-08-21T12:41:27;25.70;1.00
18434;DHT22;9344;52.294;13.626;2022-08-21T12:43:57;25.70;99.90
18434;DHT22;9344;52.294;13.626;2022-08-21T12:46:32;25.90;1.00
18434;DHT22;9344;52.294;13.626;2022-08-21T12:49:06;25.90;63.40
18434;DHT22;9344;52.294;13.626;2022-08-21T12:51:38;25.90;99.90
18434;DHT22;9344;52.294;13.626;2022-08-21T12:54:09;26.10;1.00
18434;DHT22;9344;52.294;13.626;2022-08-21T12:56:37;26.30;1.00
18434;DHT22;9344;52.294;13.626;2022-08-21T12:59:06;26.40;99.90
18434;DHT22;9344;52.294;13.626;2022-08-21T13:01:35;26.30;99.90
18434;DHT22;9344;52.294;13.626;2022-08-21T13:04:06;26.30;99.90
18434;DHT22;9344;52.294;13.626;2022-08-21T13:06:38;26.30;99.90
18434;DHT22;9344;52.294;13.626;2022-08-21T13:09:08;26.50;1.00
18434;DHT22;9344;52.294;13.626;2022-08-21T13:11:37;26.40;99.90
18434;DHT22;9344;52.294;13.626;2022-08-21T13:14:06;26.60;1.00
18434;DHT22;9344;52.294;13.626;2022-08-21T13:16:37;26.50;99.90
18434;DHT22;9344;52.294;13.626;2022-08-21T13:19:06;26.40;1.00
18434;DHT22;9344;52.294;13.626;2022-08-21T13:21:38;26.40;1.00
18434;DHT22;9344;52.294;13.626;2022-08-21T13:24:24;26.40;1.00
18434;DHT22;9344;52.294;13.626;2022-08-21T13:26:53;26.40;1.00
18434;DHT22;9344;52.294;13.626;2022-08-21T13:29:21;26.40;1.00
18434;DHT22;9344;52.294;13.626;2022-08-21T13:31:52;26.40;1.00
18434;DHT22;9344;52.294;13.626;2022-08-21T13:34:20;26.50;29.50
18434;DHT22;9344;52.294;13.626;2022-08-21T13:36:47;26.60;99.90
18434;DHT22;9344;52.294;13.626;2022-08-21T13:39:17;26.70;11.60
18434;DHT22;9344;52.294;13.626;2022-08-21T13:41:46;26.70;99.90
18434;DHT22;9344;52.294;13.626;2022-08-21T13:44:18;26.80;99.90
18434;DHT22;9344;52.294;13.626;2022-08-21T13:46:45;26.70;1.00
18434;DHT22;9344;52.294;13.626;2022-08-21T13:49:15;26.70;1.00
18434;DHT22;9344;52.294;13.626;2022-08-21T13:51:43;26.90;1.00
18434;DHT22;9344;52.294;13.626;2022-08-21T13:54:21;27.10;1.00
18434;DHT22;9344;52.294;13.626;2022-08-21T13:56:49;27.20;1.00
18434;DHT22;9344;52.294;13.626;2022-08-21T13:59:26;27.30;1.00
18434;DHT22;9344;52.294;13.626;2022-08-21T14:01:55;27.30;99.90
18434;DHT22;9344;52.294;13.626;2022-08-21T14:04:29;27.30;99.90
18434;DHT22;9344;52.294;13.626;2022-08-21T14:06:57;27.30;1.00
18434;DHT22;9344;52.294;13.626;2022-08-21T14:09:28;27.10;1.00
18434;DHT22;9344;52.294;13.626;2022-08-21T14:11:57;27.10;1.00
18434;DHT22;9344;52.294;13.626;2022-08-21T14:14:28;27.20;99.90
18434;DHT22;9344;52.294;13.626;2022-08-21T14:16:59;27.30;99.90
18434;DHT22;9344;52.294;13.626;2022-08-21T14:19:27;27.50;1.00
18434;DHT22;9344;52.294;13.626;2022-08-21T14:21:54;27.70;1.00
18434;DHT22;9344;52.294;13.626;2022-08-21T14:24:29;27.80;1.00
18434;DHT22;9344;52.294;13.626;2022-08-21T14:27:02;27.80;98.40
18434;DHT22;9344;52.294;13.626;2022-08-21T14:29:35;28.00;99.90
18434;DHT22;9344;52.294;13.626;2022-08-21T14:32:09;27.90;1.00
18434;DHT22;9344;52.294;13.626;2022-08-21T14:34:36;28.10;99.90
18434;DHT22;9344;52.294;13.626;2022-08-21T14:37:03;28.20;1.00
18434;DHT22;9344;52.294;13.626;2022-08-21T14:39:29;28.10;1.00
18434;DHT22;9344;52.294;13.626;2022-08-21T14:41:57;28.20;1.00
18434;DHT22;9344;52.294;13.626;2022-08-21T14:44:24;28.20;1.00
18434;DHT22;9344;52.294;13.626;2022-08-21T14:46:53;28.10;1.00
18434;DHT22;9344;52.294;13.626;2022-08-21T14:49:19;28.10;1.00
18434;DHT22;9344;52.294;13.626;2022-08-21T14:51:46;28.20;1.00
18434;DHT22;9344;52.294;13.626;2022-08-21T14:54:14;28.30;1.00
18434;DHT22;9344;52.294;13.626;2022-08-21T14:56:40;28.00;1.00
18434;DHT22;9344;52.294;13.626;2022-08-21T14:59:08;27.80;1.00
18434;DHT22;9344;52.294;13.626;2022-08-21T15:01:36;27.80;1.00
18434;DHT22;9344;52.294;13.626;2022-08-21T15:04:04;27.70;1.00
18434;DHT22;9344;52.294;13.626;2022-08-21T15:06:31;27.60;99.90
18434;DHT22;9344;52.294;13.626;2022-08-21T15:08:57;27.50;99.90
18434;DHT22;9344;52.294;13.626;2022-08-21T15:11:24;27.40;99.90
18434;DHT22;9344;52.294;13.626;2022-08-21T15:13:54;27.30;1.00
18434;DHT22;9344;52.294;13.626;2022-08-21T15:16:21;27.20;1.00
18434;DHT22;9344;52.294;13.626;2022-08-21T15:18:48;27.00;99.90
18434;DHT22;9344;52.294;13.626;2022-08-21T15:21:16;26.90;99.90
18434;DHT22;9344;52.294;13.626;2022-08-21T15:23:42;26.80;1.00
18434;DHT22;9344;52.294;13.626;2022-08-21T15:26:09;26.80;94.70
18434;DHT22;9344;52.294;13.626;2022-08-21T15:28:36;26.70;1.00
18434;DHT22;9344;52.294;13.626;2022-08-21T15:31:03;26.50;75.10
18434;DHT22;9344;52.294;13.626;2022-08-21T15:33:30;26.40;1.00
18434;DHT22;9344;52.294;13.626;2022-08-21T15:35:57;26.40;99.90
18434;DHT22;9344;52.294;13.626;2022-08-21T15:38:25;26.30;1.00
18434;DHT22;9344;52.294;13.626;2022-08-21T15:40:52;26.30;1.00
18434;DHT22;9344;52.294;13.626;2022-08-21T15:43:23;26.20;1.00
18434;DHT22;9344;52.294;13.626;2022-08-21T15:45:51;26.10;99.90
18434;DHT22;9344;52.294;13.626;2022-08-21T15:48:17;26.10;99.90
18434;DHT22;9344;52.294;13.626;2022-08-21T15:50:44;26.10;1.00